sensor_id;sensor_type;location;lat;lon;timestamp;pressure;altitude;pressure_sealevel;temperature;humidity
13241;BME280;6687;47.790;7.322;2023-04-28T05:24:15;98723.34;;;16.30;73.13
13241;BME280;6687;47.790;7.322;2023-04-28T05:26:42;98714.59;;;16.31;73.02
13241;BME280;6687;47.790;7.322;2023-04-28T05:29:09;98714.22;;;16.46;71.60
13241;BME280;6687;47.790;7.322;2023-04-28T05:31:36;98718.31;;;16.55;70.62
13241;BME280;6687;47.790;7.322;2023-04-28T05:34:02;98722.53;;;16.61;70.35
13241;BME280;6687;47.790;7.322;2023-04-28T05:36:29;98711.06;;;16.66;70.13
13241;BME280;6687;47.790;7.322;2023-04-28T05:38:56;98711.91;;;16.67;70.03
13241;BME280;6687;47.790;7.322;2023-04-28T05:41:24;98720.03;;;16.58;71.14
13241;BME280;6687;47.790;7.322;2023-04-28T05:43:51;98725.28;;;16.56;70.88
13241;BME280;6687;47.790;7.322;2023-04-28T05:46:17;98718.28;;;16.57;70.68
13241;BME280;6687;47.790;7.322;2023-04-28T05:48:44;98729.34;;;16.68;69.67
13241;BME280;6687;47.790;7.322;2023-04-28T05:51:11;98727.53;;;16.70;69.90
13241;BME280;6687;47.790;7.322;2023-04-28T05:53:38;98716.03;;;16.77;69.73
13241;BME280;6687;47.790;7.322;2023-04-28T05:56:05;98723.19;;;16.69;69.98
13241;BME280;6687;47.790;7.322;2023-04-28T05:58:33;98728.34;;;16.72;70.06
13241;BME280;6687;47.790;7.322;2023-04-28T06:01:00;98730.06;;;16.73;70.60
13241;BME280;6687;47.790;7.322;2023-04-28T06:03:27;98719.03;;;16.62;71.72
13241;BME280;6687;47.790;7.322;2023-04-28T06:05:54;98722.84;;;16.83;69.42
13241;BME280;6687;47.790;7.322;2023-04-28T06:08:20;98725.44;;;16.84;69.41
13241;BME280;6687;47.790;7.322;2023-04-28T06:10:47;98741.38;;;16.75;71.42
13241;BME280;6687;47.790;7.322;2023-04-28T06:13:14;98749.13;;;16.45;75.54
13241;BME280;6687;47.790;7.322;2023-04-28T06:15:42;98751.06;;;16.72;71.38
13241;BME280;6687;47.790;7.322;2023-04-28T06:18:08;98750.34;;;16.65;71.72
13241;BME280;6687;47.790;7.322;2023-04-28T06:20:35;98751.53;;;16.87;69.45
13241;BME280;6687;47.790;7.322;2023-04-28T06:23:02;98752.59;;;16.79;71.01
13241;BME280;6687;47.790;7.322;2023-04-28T06:25:29;98758.69;;;16.79;70.59
13241;BME280;6687;47.790;7.322;2023-04-28T06:27:55;98762.31;;;16.75;71.95
13241;BME280;6687;47.790;7.322;2023-04-28T06:30:22;98760.50;;;16.77;71.30
13241;BME280;6687;47.790;7.322;2023-04-28T06:32:50;98767.09;;;16.92;68.97
13241;BME280;6687;47.790;7.322;2023-04-28T06:35:17;98772.66;;;16.78;70.79
13241;BME280;6687;47.790;7.322;2023-04-28T06:37:44;98777.88;;;16.81;70.56
13241;BME280;6687;47.790;7.322;2023-04-28T06:40:10;98772.38;;;16.90;68.87
13241;BME280;6687;47.790;7.322;2023-04-28T06:42:37;98765.59;;;16.83;69.77
13241;BME280;6687;47.790;7.322;2023-04-28T06:45:05;98764.78;;;16.81;70.30
13241;BME280;6687;47.790;7.322;2023-04-28T06:47:31;98751.19;;;17.00;68.80
13241;BME280;6687;47.790;7.322;2023-04-28T06:49:59;98758.94;;;17.03;68.70
13241;BME280;6687;47.790;7.322;2023-04-28T06:52:27;98765.75;;;16.77;70.87
13241;BME280;6687;47.790;7.322;2023-04-28T06:54:54;98751.44;;;16.90;69.96
13241;BME280;6687;47.790;7.322;2023-04-28T06:57:21;98759.28;;;16.90;70.50
13241;BME280;6687;47.790;7.322;2023-04-28T06:59:48;98769.06;;;16.84;70.91
13241;BME280;6687;47.790;7.322;2023-04-28T07:02:14;98766.91;;;17.00;69.64
13241;BME280;6687;47.790;7.322;2023-04-28T07:04:41;98751.03;;;17.06;69.32
13241;BME280;6687;47.790;7.322;2023-04-28T07:07:10;98744.66;;;17.15;69.29
13241;BME280;6687;47.790;7.322;2023-04-28T07:09:37;98746.56;;;17.09;69.93
13241;BME280;6687;47.790;7.322;2023-04-28T07:12:04;98752.56;;;17.13;69.16
13241;BME280;6687;47.790;7.322;2023-04-28T07:14:31;98757.69;;;17.18;69.13
13241;BME280;6687;47.790;7.322;2023-04-28T07:16:58;98754.63;;;17.02;72.54
13241;BME280;6687;47.790;7.322;2023-04-28T07:19:25;98776.13;;;17.13;70.53
13241;BME280;6687;47.790;7.322;2023-04-28T07:21:51;98771.63;;;17.18;69.72
13241;BME280;6687;47.790;7.322;2023-04-28T07:24:19;98769.91;;;17.17;71.37
13241;BME280;6687;47.790;7.322;2023-04-28T07:26:47;98766.75;;;17.36;69.68
13241;BME280;6687;47.790;7.322;2023-04-28T07:29:14;98765.22;;;17.28;70.22
13241;BME280;6687;47.790;7.322;2023-04-28T07:31:41;98757.84;;;17.43;69.71
13241;BME280;6687;47.790;7.322;2023-04-28T07:34:07;98762.78;;;17.52;69.34
13241;BME280;6687;47.790;7.322;2023-04-28T07:36:34;98760.72;;;17.63;68.18
13241;BME280;6687;47.790;7.322;2023-04-28T07:39:01;98767.75;;;17.61;68.93
13241;BME280;6687;47.790;7.322;2023-04-28T07:41:29;98757.28;;;17.61;68.75
13241;BME280;6687;47.790;7.322;2023-04-28T07:43:56;98765.31;;;17.55;69.61
13241;BME280;6687;47.790;7.322;2023-04-28T07:46:23;98763.22;;;17.66;69.14
13241;BME280;6687;47.790;7.322;2023-04-28T07:48:49;98761.78;;;17.56;70.85
13241;BME280;6687;47.790;7.322;2023-04-28T07:51:16;98764.03;;;17.39;72.82
13241;BME280;6687;47.790;7.322;2023-04-28T07:53:43;98772.28;;;17.56;72.14
13241;BME280;6687;47.790;7.322;2023-04-28T07:56:10;98771.81;;;17.72;69.67
13241;BME280;6687;47.790;7.322;2023-04-28T07:58:38;98772.19;;;17.59;70.22
13241;BME280;6687;47.790;7.322;2023-04-28T08:01:05;98776.41;;;17.65;70.59
13241;BME280;6687;47.790;7.322;2023-04-28T08:03:32;98775.44;;;17.67;69.78
13241;BME280;6687;47.790;7.322;2023-04-28T08:05:59;98789.34;;;17.69;69.15
13241;BME280;6687;47.790;7.322;2023-04-28T08:08:26;98794.91;;;17.59;70.81
13241;BME280;6687;47.790;7.322;2023-04-28T08:10:53;98793.75;;;17.38;72.93
13241;BME280;6687;47.790;7.322;2023-04-28T08:13:20;98799.81;;;17.40;75.81
13241;BME280;6687;47.790;7.322;2023-04-28T08:15:48;98789.63;;;17.60;70.48
13241;BME280;6687;47.790;7.322;2023-04-28T08:18:15;98803.53;;;17.62;71.39
13241;BME280;6687;47.790;7.322;2023-04-28T08:20:41;98803.63;;;17.59;71.86
13241;BME280;6687;47.790;7.322;2023-04-28T08:23:08;98808.88;;;17.59;72.18
13241;BME280;6687;47.790;7.322;2023-04-28T08:25:35;98809.06;;;17.53;73.99
13241;BME280;6687;47.790;7.322;2023-04-28T08:28:02;98813.75;;;17.72;71.18
13241;BME280;6687;47.790;7.322;2023-04-28T08:30:30;98810.31;;;17.69;70.59
13241;BME280;6687;47.790;7.322;2023-04-28T08:32:59;98820.63;;;17.76;69.88
13241;BME280;6687;47.790;7.322;2023-04-28T08:35:26;98815.13;;;17.85;69.64
13241;BME280;6687;47.790;7.322;2023-04-28T08:37:52;98821.34;;;17.81;70.61
13241;BME280;6687;47.790;7.322;2023-04-28T08:40:19;98820.00;;;17.97;70.06
13241;BME280;6687;47.790;7.322;2023-04-28T08:42:48;98815.81;;;17.92;69.54
13241;BME280;6687;47.790;7.322;2023-04-28T08:45:15;98818.56;;;17.87;72.07
13241;BME280;6687;47.790;7.322;2023-04-28T08:47:42;98821.81;;;17.95;71.64
13241;BME280;6687;47.790;7.322;2023-04-28T08:50:13;98825.06;;;18.03;69.84
13241;BME280;6687;47.790;7.322;2023-04-28T08:52:41;98827.72;;;18.02;71.04
13241;BME280;6687;47.790;7.322;2023-04-28T08:55:09;98834.47;;;18.11;69.24
13241;BME280;6687;47.790;7.322;2023-04-28T08:57:37;98832.19;;;17.98;72.78
13241;BME280;6687;47.790;7.322;2023-04-28T09:00:06;98833.50;;;18.13;70.09
13241;BME280;6687;47.790;7.322;2023-04-28T09:02:33;98838.72;;;18.15;69.02
13241;BME280;6687;47.790;7.322;2023-04-28T09:05:02;98839.06;;;18.02;71.31
13241;BME280;6687;47.790;7.322;2023-04-28T09:07:30;98831.84;;;18.11;69.99
13241;BME280;6687;47.790;7.322;2023-04-28T09:10:17;98832.31;;;18.23;69.40
13241;BME280;6687;47.790;7.322;2023-04-28T09:12:44;98837.50;;;18.25;70.38
13241;BME280;6687;47.790;7.322;2023-04-28T09:15:25;98843.72;;;18.22;73.57
13241;BME280;6687;47.790;7.322;2023-04-28T09:17:52;98841.56;;;18.35;68.77
13241;BME280;6687;47.790;7.322;2023-04-28T09:20:19;98841.56;;;18.35;69.21
13241;BME280;6687;47.790;7.322;2023-04-28T09:22:48;98845.28;;;17.98;76.07
13241;BME280;6687;47.790;7.322;2023-04-28T09:25:16;98853.47;;;17.89;77.90
13241;BME280;6687;47.790;7.322;2023-04-28T09:27:43;98852.72;;;18.14;75.02
13241;BME280;6687;47.790;7.322;2023-04-28T09:30:11;98848.88;;;18.24;73.36
13241;BME280;6687;47.790;7.322;2023-04-28T09:32:38;98841.72;;;18.31;72.00
13241;BME280;6687;47.790;7.322;2023-04-28T09:35:05;98851.84;;;18.41;76.03
13241;BME280;6687;47.790;7.322;2023-04-28T09:37:33;98850.84;;;18.45;75.29
13241;BME280;6687;47.790;7.322;2023-04-28T09:40:07;98847.72;;;18.61;79.13
13241;BME280;6687;47.790;7.322;2023-04-28T09:42:35;98848.13;;;18.48;78.89
13241;BME280;6687;47.790;7.322;2023-04-28T09:45:03;98841.75;;;18.56;88.96
13241;BME280;6687;47.790;7.322;2023-04-28T09:47:32;98846.72;;;18.92;80.28
13241;BME280;6687;47.790;7.322;2023-04-28T09:50:01;98847.59;;;18.92;80.37
13241;BME280;6687;47.790;7.322;2023-04-28T09:52:28;98849.25;;;19.20;78.13
13241;BME280;6687;47.790;7.322;2023-04-28T09:54:56;98850.28;;;19.41;87.97
13241;BME280;6687;47.790;7.322;2023-04-28T09:57:24;98850.59;;;19.32;78.91
13241;BME280;6687;47.790;7.322;2023-04-28T09:59:52;98836.34;;;19.39;77.23
13241;BME280;6687;47.790;7.322;2023-04-28T10:02:21;98832.69;;;19.43;83.06
13241;BME280;6687;47.790;7.322;2023-04-28T10:04:48;98837.72;;;19.49;83.28
13241;BME280;6687;47.790;7.322;2023-04-28T10:07:16;98842.88;;;19.52;84.20
13241;BME280;6687;47.790;7.322;2023-04-28T10:09:45;98840.84;;;19.84;83.36
13241;BME280;6687;47.790;7.322;2023-04-28T10:12:15;98849.94;;;19.97;82.55
13241;BME280;6687;47.790;7.322;2023-04-28T10:14:44;98838.25;;;20.28;79.96
13241;BME280;6687;47.790;7.322;2023-04-28T10:17:12;98838.69;;;20.39;77.31
13241;BME280;6687;47.790;7.322;2023-04-28T10:19:39;98834.69;;;20.29;78.39
13241;BME280;6687;47.790;7.322;2023-04-28T10:22:20;98838.50;;;20.22;76.42
13241;BME280;6687;47.790;7.322;2023-04-28T10:25:06;98840.38;;;20.84;76.12
13241;BME280;6687;47.790;7.322;2023-04-28T10:27:37;98841.16;;;20.86;75.10
13241;BME280;6687;47.790;7.322;2023-04-28T10:30:13;98842.16;;;21.04;73.43
13241;BME280;6687;47.790;7.322;2023-04-28T10:32:40;98833.66;;;21.39;71.04
13241;BME280;6687;47.790;7.322;2023-04-28T10:35:41;98836.84;;;21.47;71.72
13241;BME280;6687;47.790;7.322;2023-04-28T10:38:11;98834.53;;;21.58;69.21
13241;BME280;6687;47.790;7.322;2023-04-28T10:40:38;98830.06;;;21.40;69.53
13241;BME280;6687;47.790;7.322;2023-04-28T10:43:07;98829.72;;;21.49;70.72
13241;BME280;6687;47.790;7.322;2023-04-28T10:46:03;98829.81;;;21.67;69.98
13241;BME280;6687;47.790;7.322;2023-04-28T10:48:52;98822.31;;;21.57;69.09
13241;BME280;6687;47.790;7.322;2023-04-28T10:51:37;98831.28;;;22.10;67.89
13241;BME280;6687;47.790;7.322;2023-04-28T10:54:21;98824.19;;;22.49;66.18
13241;BME280;6687;47.790;7.322;2023-04-28T10:57:17;98823.56;;;22.43;66.28
13241;BME280;6687;47.790;7.322;2023-04-28T10:59:44;98828.59;;;22.48;66.36
13241;BME280;6687;47.790;7.322;2023-04-28T11:02:37;98831.06;;;23.05;65.26
13241;BME280;6687;47.790;7.322;2023-04-28T11:05:12;98834.72;;;22.85;63.47
13241;BME280;6687;47.790;7.322;2023-04-28T11:07:39;98821.47;;;23.37;63.43
13241;BME280;6687;47.790;7.322;2023-04-28T11:10:06;98822.88;;;23.27;63.65
13241;BME280;6687;47.790;7.322;2023-04-28T11:12:33;98829.72;;;23.14;61.14
13241;BME280;6687;47.790;7.322;2023-04-28T11:15:11;98816.91;;;23.57;62.00
13241;BME280;6687;47.790;7.322;2023-04-28T11:17:40;98817.50;;;23.46;61.67
13241;BME280;6687;47.790;7.322;2023-04-28T11:20:11;98811.09;;;23.50;63.29
13241;BME280;6687;47.790;7.322;2023-04-28T11:22:38;98807.28;;;23.22;63.81
13241;BME280;6687;47.790;7.322;2023-04-28T11:25:06;98811.19;;;24.14;61.83
13241;BME280;6687;47.790;7.322;2023-04-28T11:27:33;98810.16;;;24.16;59.67
13241;BME280;6687;47.790;7.322;2023-04-28T11:30:00;98802.16;;;23.69;61.25
13241;BME280;6687;47.790;7.322;2023-04-28T11:32:28;98805.78;;;24.31;61.12
13241;BME280;6687;47.790;7.322;2023-04-28T11:34:56;98800.91;;;24.39;60.25
13241;BME280;6687;47.790;7.322;2023-04-28T11:37:23;98807.31;;;24.81;60.13
13241;BME280;6687;47.790;7.322;2023-04-28T11:39:50;98793.38;;;24.48;60.02
13241;BME280;6687;47.790;7.322;2023-04-28T11:42:17;98797.41;;;24.23;60.47
13241;BME280;6687;47.790;7.322;2023-04-28T11:44:49;98800.34;;;23.87;59.14
13241;BME280;6687;47.790;7.322;2023-04-28T11:47:27;98791.47;;;24.50;61.18
13241;BME280;6687;47.790;7.322;2023-04-28T11:49:57;98786.69;;;24.56;61.19
13241;BME280;6687;47.790;7.322;2023-04-28T11:52:24;98791.22;;;24.85;60.02
13241;BME280;6687;47.790;7.322;2023-04-28T11:54:52;98793.38;;;24.64;60.14
13241;BME280;6687;47.790;7.322;2023-04-28T11:57:20;98783.09;;;24.88;59.32
13241;BME280;6687;47.790;7.322;2023-04-28T11:59:48;98779.66;;;24.71;59.87
13241;BME280;6687;47.790;7.322;2023-04-28T12:02:23;98785.13;;;24.68;56.90
13241;BME280;6687;47.790;7.322;2023-04-28T12:04:50;98776.69;;;24.15;57.21
13241;BME280;6687;47.790;7.322;2023-04-28T12:07:18;98772.19;;;24.48;59.28
13241;BME280;6687;47.790;7.322;2023-04-28T12:09:48;98771.91;;;24.83;57.13
13241;BME280;6687;47.790;7.322;2023-04-28T12:12:27;98778.56;;;25.04;59.39
13241;BME280;6687;47.790;7.322;2023-04-28T12:14:54;98767.34;;;25.15;58.61
13241;BME280;6687;47.790;7.322;2023-04-28T12:17:25;98770.34;;;24.18;55.85
13241;BME280;6687;47.790;7.322;2023-04-28T12:19:52;98760.97;;;25.03;58.79
13241;BME280;6687;47.790;7.322;2023-04-28T12:22:21;98765.97;;;24.79;59.13
13241;BME280;6687;47.790;7.322;2023-04-28T12:25:02;98763.72;;;25.01;57.87
13241;BME280;6687;47.790;7.322;2023-04-28T12:27:28;98769.66;;;24.91;58.60
13241;BME280;6687;47.790;7.322;2023-04-28T12:29:56;98755.31;;;25.09;57.76
13241;BME280;6687;47.790;7.322;2023-04-28T12:32:36;98759.88;;;25.22;57.80
13241;BME280;6687;47.790;7.322;2023-04-28T12:35:03;98752.81;;;25.20;57.03
13241;BME280;6687;47.790;7.322;2023-04-28T12:37:32;98758.63;;;25.42;57.20
13241;BME280;6687;47.790;7.322;2023-04-28T12:39:59;98763.09;;;25.41;58.40
13241;BME280;6687;47.790;7.322;2023-04-28T12:42:26;98753.78;;;25.48;56.88
13241;BME280;6687;47.790;7.322;2023-04-28T12:44:53;98752.66;;;25.38;57.17
13241;BME280;6687;47.790;7.322;2023-04-28T12:47:20;98739.97;;;25.43;55.92
13241;BME280;6687;47.790;7.322;2023-04-28T12:49:47;98733.56;;;25.33;57.95
13241;BME280;6687;47.790;7.322;2023-04-28T12:52:16;98730.91;;;25.33;57.02
13241;BME280;6687;47.790;7.322;2023-04-28T12:54:44;98730.75;;;25.06;58.02
13241;BME280;6687;47.790;7.322;2023-04-28T12:57:12;98729.25;;;25.01;58.06
13241;BME280;6687;47.790;7.322;2023-04-28T12:59:39;98729.53;;;24.97;61.16
13241;BME280;6687;47.790;7.322;2023-04-28T13:02:06;98721.38;;;25.00;59.64
13241;BME280;6687;47.790;7.322;2023-04-28T13:04:32;98711.75;;;24.54;61.39
13241;BME280;6687;47.790;7.322;2023-04-28T13:06:59;98715.28;;;24.39;61.68
13241;BME280;6687;47.790;7.322;2023-04-28T13:09:26;98719.56;;;24.41;61.63
13241;BME280;6687;47.790;7.322;2023-04-28T13:11:55;98714.34;;;24.40;61.64
13241;BME280;6687;47.790;7.322;2023-04-28T13:14:22;98712.63;;;24.39;62.10
13241;BME280;6687;47.790;7.322;2023-04-28T13:16:49;98710.97;;;23.92;63.97
13241;BME280;6687;47.790;7.322;2023-04-28T13:19:17;98727.41;;;24.13;63.37
13241;BME280;6687;47.790;7.322;2023-04-28T13:21:44;98733.72;;;23.13;68.74
13241;BME280;6687;47.790;7.322;2023-04-28T13:24:11;98733.84;;;23.28;70.34
13241;BME280;6687;47.790;7.322;2023-04-28T13:26:38;98733.28;;;23.54;69.34
13241;BME280;6687;47.790;7.322;2023-04-28T13:29:06;98737.94;;;23.00;71.79
13241;BME280;6687;47.790;7.322;2023-04-28T13:31:33;98731.13;;;22.78;73.58
13241;BME280;6687;47.790;7.322;2023-04-28T13:34:00;98732.97;;;22.94;72.82
13241;BME280;6687;47.790;7.322;2023-04-28T13:36:28;98733.78;;;22.61;76.79
13241;BME280;6687;47.790;7.322;2023-04-28T13:38:55;98725.28;;;22.89;72.74
13241;BME280;6687;47.790;7.322;2023-04-28T13:41:22;98725.34;;;22.18;77.54
13241;BME280;6687;47.790;7.322;2023-04-28T13:43:50;98733.41;;;22.69;75.91
13241;BME280;6687;47.790;7.322;2023-04-28T13:46:18;98733.78;;;22.43;80.87
13241;BME280;6687;47.790;7.322;2023-04-28T13:48:45;98719.28;;;22.35;83.32
13241;BME280;6687;47.790;7.322;2023-04-28T13:51:12;98713.28;;;22.49;85.27
13241;BME280;6687;47.790;7.322;2023-04-28T13:53:38;98714.44;;;21.89;86.84
13241;BME280;6687;47.790;7.322;2023-04-28T13:56:06;98706.88;;;22.00;84.96
13241;BME280;6687;47.790;7.322;2023-04-28T13:58:33;98699.28;;;21.56;86.34
13241;BME280;6687;47.790;7.322;2023-04-28T14:01:01;98704.44;;;22.32;84.44
13241;BME280;6687;47.790;7.322;2023-04-28T14:03:30;98706.03;;;22.17;86.20
13241;BME280;6687;47.790;7.322;2023-04-28T14:05:57;98708.03;;;22.12;85.09
13241;BME280;6687;47.790;7.322;2023-04-28T14:08:25;98702.28;;;21.49;85.43
13241;BME280;6687;47.790;7.322;2023-04-28T14:10:52;98690.41;;;21.95;83.81
13241;BME280;6687;47.790;7.322;2023-04-28T14:13:19;98697.56;;;21.74;84.58
13241;BME280;6687;47.790;7.322;2023-04-28T14:15:46;98689.00;;;22.05;84.49
13241;BME280;6687;47.790;7.322;2023-04-28T14:18:12;98693.97;;;22.12;82.34
13241;BME280;6687;47.790;7.322;2023-04-28T14:20:41;98691.59;;;21.71;82.45
13241;BME280;6687;47.790;7.322;2023-04-28T14:23:08;98691.34;;;22.12;82.37
13241;BME280;6687;47.790;7.322;2023-04-28T14:25:34;98685.66;;;22.02;82.46
13241;BME280;6687;47.790;7.322;2023-04-28T14:28:02;98682.84;;;21.51;83.47
13241;BME280;6687;47.790;7.322;2023-04-28T14:30:28;98673.31;;;21.85;82.97
13241;BME280;6687;47.790;7.322;2023-04-28T14:32:55;98668.94;;;21.67;82.68
13241;BME280;6687;47.790;7.322;2023-04-28T14:35:23;98674.88;;;21.89;82.26
13241;BME280;6687;47.790;7.322;2023-04-28T14:37:51;98672.84;;;21.77;80.70
13241;BME280;6687;47.790;7.322;2023-04-28T14:40:18;98680.84;;;21.93;80.43
13241;BME280;6687;47.790;7.322;2023-04-28T14:42:45;98685.88;;;21.80;81.84
13241;BME280;6687;47.790;7.322;2023-04-28T14:45:12;98695.44;;;21.63;83.41
13241;BME280;6687;47.790;7.322;2023-04-28T14:47:40;98692.31;;;21.55;84.60
13241;BME280;6687;47.790;7.322;2023-04-28T14:50:08;98676.09;;;21.82;82.67
13241;BME280;6687;47.790;7.322;2023-04-28T14:52:35;98681.91;;;21.52;85.44
13241;BME280;6687;47.790;7.322;2023-04-28T14:55:04;98664.09;;;21.57;85.09
13241;BME280;6687;47.790;7.322;2023-04-28T14:57:31;98659.75;;;21.56;82.40
13241;BME280;6687;47.790;7.322;2023-04-28T14:59:59;98648.94;;;21.80;82.10
13241;BME280;6687;47.790;7.322;2023-04-28T15:02:26;98646.78;;;21.88;79.14
13241;BME280;6687;47.790;7.322;2023-04-28T15:04:54;98646.56;;;21.56;83.82
13241;BME280;6687;47.790;7.322;2023-04-28T15:07:20;98647.84;;;21.67;83.52
13241;BME280;6687;47.790;7.322;2023-04-28T15:09:47;98648.63;;;21.86;81.01
13241;BME280;6687;47.790;7.322;2023-04-28T15:12:16;98653.50;;;21.59;87.80
13241;BME280;6687;47.790;7.322;2023-04-28T15:14:42;98655.16;;;21.96;82.56
13241;BME280;6687;47.790;7.322;2023-04-28T15:17:09;98657.66;;;21.99;78.11
13241;BME280;6687;47.790;7.322;2023-04-28T15:19:36;98644.78;;;21.93;74.70
13241;BME280;6687;47.790;7.322;2023-04-28T15:22:02;98651.28;;;22.03;75.04
13241;BME280;6687;47.790;7.322;2023-04-28T15:24:29;98648.19;;;21.95;76.92
13241;BME280;6687;47.790;7.322;2023-04-28T15:26:56;98645.09;;;22.04;75.32
13241;BME280;6687;47.790;7.322;2023-04-28T15:29:25;98645.63;;;21.94;74.48
13241;BME280;6687;47.790;7.322;2023-04-28T15:31:51;98637.78;;;21.92;73.79
13241;BME280;6687;47.790;7.322;2023-04-28T15:34:18;98647.72;;;21.87;73.68
13241;BME280;6687;47.790;7.322;2023-04-28T15:36:45;98660.56;;;21.76;75.80
13241;BME280;6687;47.790;7.322;2023-04-28T15:39:11;98660.53;;;21.58;79.69
13241;BME280;6687;47.790;7.322;2023-04-28T15:41:38;98662.78;;;21.66;80.73
13241;BME280;6687;47.790;7.322;2023-04-28T15:44:05;98656.75;;;21.64;77.07
13241;BME280;6687;47.790;7.322;2023-04-28T15:46:36;98651.53;;;21.62;74.97
13241;BME280;6687;47.790;7.322;2023-04-28T15:49:03;98650.84;;;21.59;73.75
13241;BME280;6687;47.790;7.322;2023-04-28T15:51:29;98648.34;;;21.56;72.96
13241;BME280;6687;47.790;7.322;2023-04-28T15:53:56;98643.59;;;21.45;73.86
13241;BME280;6687;47.790;7.322;2023-04-28T15:56:23;98642.31;;;21.35;75.11
13241;BME280;6687;47.790;7.322;2023-04-28T15:58:50;98640.72;;;21.31;74.43
13241;BME280;6687;47.790;7.322;2023-04-28T16:01:17;98649.69;;;21.26;73.82
13241;BME280;6687;47.790;7.322;2023-04-28T16:03:46;98639.72;;;21.33;73.79
13241;BME280;6687;47.790;7.322;2023-04-28T16:06:13;98643.09;;;21.37;72.89
13241;BME280;6687;47.790;7.322;2023-04-28T16:08:40;98638.84;;;21.33;73.10
13241;BME280;6687;47.790;7.322;2023-04-28T16:11:07;98644.22;;;21.31;72.54
13241;BME280;6687;47.790;7.322;2023-04-28T16:13:35;98641.59;;;21.31;72.24
13241;BME280;6687;47.790;7.322;2023-04-28T16:16:02;98639.72;;;21.14;73.19
13241;BME280;6687;47.790;7.322;2023-04-28T16:18:29;98636.75;;;21.22;72.25
13241;BME280;6687;47.790;7.322;2023-04-28T16:20:57;98641.66;;;21.30;71.98
13241;BME280;6687;47.790;7.322;2023-04-28T16:23:24;98639.44;;;21.20;73.44
13241;BME280;6687;47.790;7.322;2023-04-28T16:25:51;98652.72;;;21.19;72.46
13241;BME280;6687;47.790;7.322;2023-04-28T16:28:18;98656.25;;;21.18;72.25
13241;BME280;6687;47.790;7.322;2023-04-28T16:30:45;98647.84;;;21.10;72.57
13241;BME280;6687;47.790;7.322;2023-04-28T16:33:14;98649.25;;;21.17;71.40
13241;BME280;6687;47.790;7.322;2023-04-28T16:35:40;98648.69;;;21.10;72.15
13241;BME280;6687;47.790;7.322;2023-04-28T16:38:08;98646.28;;;21.05;71.78
13241;BME280;6687;47.790;7.322;2023-04-28T16:40:36;98642.59;;;21.10;71.57
13241;BME280;6687;47.790;7.322;2023-04-28T16:43:03;98633.06;;;21.07;71.25
13241;BME280;6687;47.790;7.322;2023-04-28T16:45:29;98638.31;;;21.07;71.05
13241;BME280;6687;47.790;7.322;2023-04-28T16:47:56;98642.44;;;21.13;71.28
13241;BME280;6687;47.790;7.322;2023-04-28T16:50:23;98621.50;;;21.10;71.95
13241;BME280;6687;47.790;7.322;2023-04-28T16:52:50;98616.78;;;21.16;70.57
13241;BME280;6687;47.790;7.322;2023-04-28T16:55:18;98620.94;;;21.22;70.50
13241;BME280;6687;47.790;7.322;2023-04-28T16:57:44;98625.06;;;21.28;69.82
13241;BME280;6687;47.790;7.322;2023-04-28T17:00:12;98634.03;;;21.23;69.03
13241;BME280;6687;47.790;7.322;2023-04-28T17:02:39;98621.63;;;21.44;68.84
13241;BME280;6687;47.790;7.322;2023-04-28T17:05:07;98629.66;;;21.43;68.58
13241;BME280;6687;47.790;7.322;2023-04-28T17:07:34;98633.53;;;21.53;67.44
13241;BME280;6687;47.790;7.322;2023-04-28T17:10:00;98634.81;;;21.63;68.30
13241;BME280;6687;47.790;7.322;2023-04-28T17:12:28;98636.88;;;21.57;68.17
13241;BME280;6687;47.790;7.322;2023-04-28T17:14:55;98631.38;;;21.61;67.45
13241;BME280;6687;47.790;7.322;2023-04-28T17:17:22;98628.16;;;21.74;67.36
13241;BME280;6687;47.790;7.322;2023-04-28T17:19:49;98630.16;;;21.69;67.13
13241;BME280;6687;47.790;7.322;2023-04-28T17:22:15;98636.06;;;21.74;65.85
13241;BME280;6687;47.790;7.322;2023-04-28T17:24:42;98630.47;;;21.80;65.13
13241;BME280;6687;47.790;7.322;2023-04-28T17:27:09;98639.09;;;21.83;65.46
13241;BME280;6687;47.790;7.322;2023-04-28T17:29:37;98635.44;;;21.69;66.42
13241;BME280;6687;47.790;7.322;2023-04-28T17:32:05;98633.28;;;21.77;66.04
13241;BME280;6687;47.790;7.322;2023-04-28T17:34:31;98636.84;;;21.76;65.53
13241;BME280;6687;47.790;7.322;2023-04-28T17:36:58;98646.47;;;21.77;65.67
13241;BME280;6687;47.790;7.322;2023-04-28T17:39:25;98644.34;;;21.66;65.80
13241;BME280;6687;47.790;7.322;2023-04-28T17:41:51;98643.66;;;21.80;65.68
13241;BME280;6687;47.790;7.322;2023-04-28T17:44:18;98645.22;;;21.84;65.10
13241;BME280;6687;47.790;7.322;2023-04-28T17:46:46;98653.16;;;22.01;64.79
13241;BME280;6687;47.790;7.322;2023-04-28T17:49:13;98645.22;;;21.84;64.36
13241;BME280;6687;47.790;7.322;2023-04-28T17:51:40;98646.00;;;21.86;64.99
13241;BME280;6687;47.790;7.322;2023-04-28T17:54:07;98647.38;;;21.76;64.60
13241;BME280;6687;47.790;7.322;2023-04-28T17:56:35;98641.75;;;21.64;65.16
13241;BME280;6687;47.790;7.322;2023-04-28T17:59:03;98646.72;;;21.53;66.68
13241;BME280;6687;47.790;7.322;2023-04-28T18:01:31;98646.56;;;21.56;65.70
13241;BME280;6687;47.790;7.322;2023-04-28T18:03:59;98648.88;;;21.45;66.16
13241;BME280;6687;47.790;7.322;2023-04-28T18:06:27;98651.78;;;21.39;65.82
13241;BME280;6687;47.790;7.322;2023-04-28T18:08:54;98652.13;;;21.31;66.38
13241;BME280;6687;47.790;7.322;2023-04-28T18:11:20;98655.97;;;21.05;68.11
13241;BME280;6687;47.790;7.322;2023-04-28T18:13:47;98655.75;;;21.10;68.23
13241;BME280;6687;47.790;7.322;2023-04-28T18:16:14;98650.44;;;21.11;67.83
13241;BME280;6687;47.790;7.322;2023-04-28T18:18:41;98641.38;;;20.98;68.30
13241;BME280;6687;47.790;7.322;2023-04-28T18:21:09;98655.78;;;20.70;69.60
13241;BME280;6687;47.790;7.322;2023-04-28T18:23:36;98655.22;;;20.82;68.53
13241;BME280;6687;47.790;7.322;2023-04-28T18:26:03;98654.31;;;20.63;69.82
13241;BME280;6687;47.790;7.322;2023-04-28T18:28:30;98656.97;;;20.63;69.32
13241;BME280;6687;47.790;7.322;2023-04-28T18:30:58;98657.28;;;20.55;69.38
13241;BME280;6687;47.790;7.322;2023-04-28T18:33:23;98652.34;;;20.48;69.99
13241;BME280;6687;47.790;7.322;2023-04-28T18:35:58;98651.41;;;20.49;69.54
13241;BME280;6687;47.790;7.322;2023-04-28T18:38:26;98656.16;;;20.40;70.25